Time;durP1;ratioP1;P1;durP2;ratioP2;P2;SDS_P1;SDS_P2;PMS_P1;PMS_P2;Temp;Humidity;BMP_temperature;BMP_pressure;BME280_temperature;BME280_humidity;BME280_pressure;Samples;Min_cycle;Max_cycle;Signal;HPM_P1;HPM_P2
2023/12/06 00:00:08;;;;;;;8.55;6.30;;;4.10;99.90;;;;;;493999;241;27489;-72
2023/12/06 00:02:09;;;;;;;8.10;6.32;;;4.10;99.90;;;;;;493950;241;27506;-73
2023/12/06 00:04:11;;;;;;;8.40;6.60;;;4.20;99.90;;;;;;493976;241;27461;-72
2023/12/06 00:06:12;;;;;;;6.75;6.05;;;4.20;99.90;;;;;;494008;241;27513;-73
2023/12/06 00:08:13;;;;;;;8.38;7.00;;;4.10;99.90;;;;;;494006;241;27628;-74
2023/12/06 00:10:14;;;;;;;6.25;5.40;;;4.10;99.90;;;;;;493989;241;27560;-72
2023/12/06 00:12:16;;;;;;;6.60;5.70;;;4.10;99.90;;;;;;493989;241;27541;-72
2023/12/06 00:14:17;;;;;;;9.63;7.32;;;4.20;99.90;;;;;;493972;241;27487;-72
2023/12/06 00:16:18;;;;;;;8.00;5.90;;;4.10;99.90;;;;;;494065;241;27484;-73
2023/12/06 00:18:19;;;;;;;8.15;6.50;;;4.10;99.90;;;;;;494076;241;27958;-73
2023/12/06 00:20:21;;;;;;;9.07;7.68;;;4.10;99.90;;;;;;494058;237;27922;-73
2023/12/06 00:22:22;;;;;;;8.15;5.47;;;4.10;99.90;;;;;;493964;241;28022;-72
2023/12/06 00:24:23;;;;;;;6.82;6.00;;;4.10;99.90;;;;;;494110;241;28211;-74
2023/12/06 00:26:24;;;;;;;6.82;5.85;;;4.10;99.90;;;;;;494033;241;27470;-73
2023/12/06 00:28:26;;;;;;;10.20;7.50;;;4.20;99.90;;;;;;494055;241;27524;-73
2023/12/06 00:30:27;;;;;;;8.38;7.10;;;4.10;99.90;;;;;;493961;241;27550;-72
2023/12/06 00:32:28;;;;;;;8.48;6.95;;;4.20;99.90;;;;;;493973;238;27513;-72
2023/12/06 00:34:29;;;;;;;10.68;7.87;;;4.20;99.90;;;;;;493942;241;27541;-74
2023/12/06 00:36:31;;;;;;;12.45;8.95;;;4.20;99.90;;;;;;494067;241;27489;-72
2023/12/06 00:38:32;;;;;;;8.13;6.55;;;4.10;99.90;;;;;;494046;241;27652;-72
2023/12/06 00:40:33;;;;;;;7.85;6.93;;;4.10;99.90;;;;;;493967;241;27469;-72
2023/12/06 00:42:34;;;;;;;10.57;7.93;;;4.20;99.90;;;;;;493983;241;27480;-72
2023/12/06 00:44:36;;;;;;;7.53;6.45;;;4.20;99.90;;;;;;493962;241;28063;-73
2023/12/06 00:46:37;;;;;;;8.13;6.40;;;4.20;99.90;;;;;;493985;241;28020;-72
2023/12/06 00:48:38;;;;;;;9.85;7.55;;;4.20;99.90;;;;;;493983;241;28094;-72
2023/12/06 00:50:39;;;;;;;6.65;6.00;;;4.20;99.90;;;;;;494007;241;27509;-74
2023/12/06 00:52:41;;;;;;;7.25;6.55;;;4.20;99.90;;;;;;493952;241;27481;-72
2023/12/06 00:54:42;;;;;;;6.97;6.00;;;4.20;99.90;;;;;;494021;241;27537;-72
2023/12/06 00:56:43;;;;;;;8.95;6.68;;;4.20;99.90;;;;;;494023;241;27483;-72
2023/12/06 00:58:44;;;;;;;8.95;6.25;;;4.20;99.90;;;;;;494005;241;27492;-73
2023/12/06 01:00:46;;;;;;;8.82;6.95;;;4.20;99.90;;;;;;494019;241;27643;-74
2023/12/06 01:02:47;;;;;;;7.40;5.80;;;4.20;99.90;;;;;;494086;241;27481;-72
2023/12/06 01:04:50;;;;;;;6.95;5.35;;;4.20;99.90;;;;;;494061;241;27513;-73
2023/12/06 01:06:49;;;;;;;6.37;5.72;;;4.20;99.90;;;;;;493828;241;27457;-72
2023/12/06 01:08:51;;;;;;;5.87;5.10;;;4.20;99.90;;;;;;493976;241;27458;-72
2023/12/06 01:10:52;;;;;;;5.40;4.80;;;4.20;99.90;;;;;;494001;241;28095;-72
2023/12/06 01:12:53;;;;;;;4.70;4.20;;;4.20;99.90;;;;;;494081;241;27926;-73
2023/12/06 01:14:54;;;;;;;5.53;4.62;;;4.20;99.90;;;;;;494044;241;29026;-72
2023/12/06 01:16:56;;;;;;;5.65;4.68;;;4.20;99.90;;;;;;494092;241;28062;-74
2023/12/06 01:18:57;;;;;;;4.87;4.35;;;4.20;99.90;;;;;;494084;241;27474;-72
2023/12/06 01:20:58;;;;;;;6.25;4.97;;;4.20;99.90;;;;;;494026;241;27575;-73
2023/12/06 01:22:59;;;;;;;6.32;5.05;;;4.20;99.90;;;;;;494002;241;27466;-72
2023/12/06 01:25:01;;;;;;;4.95;4.45;;;4.20;99.90;;;;;;494002;241;27497;-72
2023/12/06 01:27:03;;;;;;;4.85;4.40;;;4.20;99.90;;;;;;494013;237;27516;-73
2023/12/06 01:29:07;;;;;;;7.07;5.47;;;4.20;99.90;;;;;;493983;241;27482;-73
2023/12/06 01:31:04;;;;;;;5.70;4.25;;;4.20;99.90;;;;;;493700;241;27581;-73
2023/12/06 01:33:06;;;;;;;4.10;3.70;;;4.20;99.90;;;;;;494018;241;27505;-72
2023/12/06 01:35:07;;;;;;;6.15;4.90;;;4.20;99.90;;;;;;494073;241;27573;-73
2023/12/06 01:37:08;;;;;;;6.32;5.30;;;4.20;99.90;;;;;;494087;241;28056;-74
2023/12/06 01:39:09;;;;;;;10.35;5.30;;;4.20;99.90;;;;;;494136;241;27918;-72
2023/12/06 01:41:11;;;;;;;7.90;5.70;;;4.20;99.90;;;;;;493975;239;29109;-72
2023/12/06 01:43:12;;;;;;;5.40;4.57;;;4.20;99.90;;;;;;494002;241;27629;-73
2023/12/06 01:45:13;;;;;;;7.55;6.22;;;4.20;99.90;;;;;;493988;241;27649;-72
2023/12/06 01:47:14;;;;;;;5.75;4.80;;;4.30;99.90;;;;;;493981;241;27503;-72
2023/12/06 01:49:16;;;;;;;5.40;4.43;;;4.30;99.90;;;;;;493979;241;27526;-72
2023/12/06 01:51:17;;;;;;;4.93;4.50;;;4.30;99.90;;;;;;493926;241;27497;-72
2023/12/06 01:53:18;;;;;;;5.05;4.55;;;4.30;99.90;;;;;;493982;241;27834;-72
2023/12/06 01:55:19;;;;;;;4.50;4.00;;;4.30;99.90;;;;;;494075;241;27560;-72
2023/12/06 01:57:21;;;;;;;5.45;4.97;;;4.30;99.90;;;;;;494080;241;27528;-73
2023/12/06 01:59:22;;;;;;;5.72;5.10;;;4.30;99.90;;;;;;493968;241;27521;-72
2023/12/06 02:01:23;;;;;;;7.30;5.37;;;4.30;99.90;;;;;;493973;241;27518;-72
2023/12/06 02:03:24;;;;;;;5.25;4.75;;;4.30;99.90;;;;;;493999;241;27999;-74
2023/12/06 02:05:26;;;;;;;5.12;4.53;;;4.30;99.90;;;;;;493939;239;27464;-72
2023/12/06 02:07:27;;;;;;;5.05;4.55;;;4.30;99.90;;;;;;493980;241;27526;-73
2023/12/06 02:09:28;;;;;;;6.40;4.82;;;4.30;99.90;;;;;;493955;241;27509;-72
2023/12/06 02:11:29;;;;;;;6.00;5.35;;;4.30;99.90;;;;;;494085;241;27485;-73
2023/12/06 02:13:31;;;;;;;6.53;4.85;;;4.30;99.90;;;;;;494055;241;27497;-73
2023/12/06 02:15:32;;;;;;;6.05;5.45;;;4.30;99.90;;;;;;494049;241;27514;-72
2023/12/06 02:17:33;;;;;;;4.68;4.25;;;4.30;99.90;;;;;;494041;241;27564;-72
2023/12/06 02:19:34;;;;;;;4.10;3.70;;;4.30;99.90;;;;;;494031;241;27554;-72
2023/12/06 02:21:36;;;;;;;4.30;3.90;;;4.30;99.90;;;;;;494077;241;27469;-73
2023/12/06 02:23:37;;;;;;;5.22;4.57;;;4.30;99.90;;;;;;494036;241;27963;-73
2023/12/06 02:25:38;;;;;;;3.80;3.50;;;4.30;99.90;;;;;;493989;241;28017;-73
2023/12/06 02:27:39;;;;;;;4.30;3.50;;;4.30;99.90;;;;;;493985;241;27969;-73
2023/12/06 02:29:41;;;;;;;4.10;3.70;;;4.40;99.90;;;;;;493973;241;27526;-73
2023/12/06 02:31:42;;;;;;;5.82;5.10;;;4.40;99.90;;;;;;494003;241;27515;-72
2023/12/06 02:33:43;;;;;;;5.25;4.75;;;4.40;99.90;;;;;;494011;241;27570;-73
2023/12/06 02:35:44;;;;;;;4.65;4.22;;;4.40;99.90;;;;;;493983;241;27480;-72
2023/12/06 02:37:46;;;;;;;6.70;5.55;;;4.40;99.90;;;;;;493979;241;27612;-73
2023/12/06 02:39:47;;;;;;;7.20;5.62;;;4.40;99.90;;;;;;493996;241;27522;-75
2023/12/06 02:41:48;;;;;;;8.45;6.37;;;4.40;99.90;;;;;;493971;241;27537;-72
2023/12/06 02:43:50;;;;;;;7.70;4.53;;;4.40;99.90;;;;;;493949;241;27536;-73
2023/12/06 02:45:51;;;;;;;8.40;6.50;;;4.40;99.90;;;;;;493989;241;27564;-73
2023/12/06 02:47:52;;;;;;;6.68;5.68;;;4.40;99.90;;;;;;494034;241;27552;-73
2023/12/06 02:49:53;;;;;;;5.40;4.90;;;4.40;99.90;;;;;;494037;241;27485;-73
2023/12/06 02:51:55;;;;;;;5.90;5.30;;;4.40;99.90;;;;;;494038;241;27545;-73
2023/12/06 02:53:56;;;;;;;5.57;5.07;;;4.40;99.90;;;;;;494024;241;27988;-72
2023/12/06 02:55:57;;;;;;;5.90;4.20;;;4.30;99.90;;;;;;494061;241;28057;-74
2023/12/06 02:57:58;;;;;;;4.40;3.87;;;4.30;99.90;;;;;;493941;241;27918;-72
2023/12/06 03:00:00;;;;;;;5.30;4.25;;;4.30;99.90;;;;;;494001;241;27493;-72
2023/12/06 03:02:01;;;;;;;4.00;3.60;;;4.30;99.90;;;;;;494006;241;27467;-72
2023/12/06 03:04:02;;;;;;;5.15;4.57;;;4.30;99.90;;;;;;493985;241;27611;-73
2023/12/06 03:06:03;;;;;;;4.60;4.20;;;4.30;99.90;;;;;;494078;241;27654;-74
2023/12/06 03:08:05;;;;;;;7.18;5.25;;;4.30;99.90;;;;;;494078;241;27475;-72
2023/12/06 03:10:06;;;;;;;5.47;4.80;;;4.30;99.90;;;;;;494036;241;27556;-72
2023/12/06 03:12:07;;;;;;;6.35;5.12;;;4.30;99.90;;;;;;494026;241;27474;-72
2023/12/06 03:14:08;;;;;;;6.00;5.12;;;4.30;99.90;;;;;;494064;241;27502;-73
2023/12/06 03:16:10;;;;;;;7.00;5.72;;;4.30;99.90;;;;;;494076;241;27504;-74
2023/12/06 03:18:11;;;;;;;6.78;5.62;;;4.30;99.90;;;;;;494033;241;27928;-72
2023/12/06 03:20:12;;;;;;;6.10;5.50;;;4.30;99.90;;;;;;493923;241;28096;-73
2023/12/06 03:22:13;;;;;;;7.43;6.47;;;4.30;99.90;;;;;;494033;241;28122;-73
2023/12/06 03:24:15;;;;;;;6.22;5.60;;;4.30;99.90;;;;;;494120;241;27488;-72
2023/12/06 03:26:16;;;;;;;8.88;5.78;;;4.30;99.90;;;;;;494085;241;27493;-73
2023/12/06 03:28:17;;;;;;;6.75;4.85;;;4.30;99.90;;;;;;494075;241;27538;-72
2023/12/06 03:30:18;;;;;;;6.28;4.85;;;4.30;99.90;;;;;;494009;241;27564;-72
2023/12/06 03:32:20;;;;;;;6.97;6.00;;;4.30;99.90;;;;;;494015;241;27966;-72
2023/12/06 03:34:21;;;;;;;9.15;6.07;;;4.20;99.90;;;;;;494014;241;27510;-72
2023/12/06 03:36:22;;;;;;;5.40;4.80;;;4.20;99.90;;;;;;494099;241;27540;-73
2023/12/06 03:38:23;;;;;;;7.53;5.45;;;4.20;99.90;;;;;;493989;241;27510;-72
2023/12/06 03:40:25;;;;;;;6.75;5.85;;;4.20;99.90;;;;;;494011;241;28189;-72
2023/12/06 03:42:26;;;;;;;5.95;5.35;;;4.20;99.90;;;;;;494031;241;27990;-73
2023/12/06 03:44:27;;;;;;;15.63;13.18;;;4.20;99.90;;;;;;494009;241;27999;-73
2023/12/06 03:46:28;;;;;;;13.00;11.70;;;4.30;99.90;;;;;;494003;241;27506;-73
2023/12/06 03:48:30;;;;;;;8.65;7.55;;;4.20;99.90;;;;;;494014;241;27460;-72
2023/12/06 03:50:31;;;;;;;12.05;10.75;;;4.20;99.90;;;;;;494109;241;27486;-72
2023/12/06 03:52:33;;;;;;;8.77;7.78;;;4.20;99.90;;;;;;494081;241;27496;-72
2023/12/06 03:54:33;;;;;;;9.10;8.25;;;4.20;99.90;;;;;;493994;241;27462;-72
2023/12/06 03:56:35;;;;;;;10.10;7.70;;;4.20;99.90;;;;;;494005;241;27513;-72
2023/12/06 03:58:37;;;;;;;11.60;8.27;;;4.30;99.90;;;;;;494007;241;27527;-72
2023/12/06 04:00:38;;;;;;;7.53;6.72;;;4.20;99.90;;;;;;494017;241;27898;-72
2023/12/06 04:02:38;;;;;;;9.82;7.50;;;4.20;99.90;;;;;;494048;241;29031;-73
2023/12/06 04:04:40;;;;;;;9.38;7.95;;;4.30;99.90;;;;;;494069;241;27934;-72
2023/12/06 04:06:41;;;;;;;10.13;7.82;;;4.20;99.90;;;;;;494014;241;27597;-73
2023/12/06 04:08:42;;;;;;;8.02;6.57;;;4.20;99.90;;;;;;494080;237;27525;-73
2023/12/06 04:10:43;;;;;;;10.07;8.02;;;4.20;99.90;;;;;;494092;237;27468;-72
2023/12/06 04:12:45;;;;;;;8.32;6.95;;;4.20;99.90;;;;;;494105;241;27498;-73
2023/12/06 04:14:46;;;;;;;9.27;7.35;;;4.20;99.90;;;;;;494075;239;27476;-72
2023/12/06 04:16:49;;;;;;;10.00;7.10;;;4.20;99.90;;;;;;494065;241;27604;-73
2023/12/06 04:18:48;;;;;;;9.77;7.37;;;4.20;99.90;;;;;;493881;241;27498;-73
2023/12/06 04:20:50;;;;;;;9.73;7.82;;;4.20;99.90;;;;;;494018;241;27504;-73
2023/12/06 04:22:51;;;;;;;8.88;7.15;;;4.10;99.90;;;;;;494000;241;27958;-73
2023/12/06 04:24:53;;;;;;;10.05;7.28;;;4.10;99.90;;;;;;493982;241;28002;-72
2023/12/06 04:26:53;;;;;;;8.80;7.40;;;4.10;99.90;;;;;;493978;241;27956;-73
2023/12/06 04:28:55;;;;;;;8.65;7.10;;;4.10;99.90;;;;;;493989;241;27537;-73
2023/12/06 04:30:56;;;;;;;9.77;7.45;;;4.10;99.90;;;;;;493967;241;27549;-72
2023/12/06 04:32:57;;;;;;;10.50;7.65;;;4.10;99.90;;;;;;494001;241;27490;-73
2023/12/06 04:34:58;;;;;;;6.85;5.93;;;4.10;99.90;;;;;;494014;241;27492;-72
2023/12/06 04:37:00;;;;;;;9.77;7.60;;;4.10;99.90;;;;;;494082;241;27479;-73
2023/12/06 04:39:01;;;;;;;9.90;7.18;;;4.00;99.90;;;;;;493986;237;27507;-73
2023/12/06 04:41:02;;;;;;;8.98;7.57;;;4.00;99.90;;;;;;493975;239;27552;-72
2023/12/06 04:43:03;;;;;;;9.73;7.25;;;4.00;99.90;;;;;;493971;241;27552;-73
2023/12/06 04:45:05;;;;;;;8.57;7.20;;;3.90;99.90;;;;;;494002;241;27586;-77
2023/12/06 04:47:06;;;;;;;9.55;7.20;;;3.90;99.90;;;;;;493955;241;27949;-72
2023/12/06 04:49:08;;;;;;;8.95;6.47;;;3.90;99.90;;;;;;493991;241;27529;-72
2023/12/06 04:51:09;;;;;;;11.45;9.25;;;3.90;99.90;;;;;;493965;241;27613;-72
2023/12/06 04:53:10;;;;;;;10.10;8.30;;;3.90;99.90;;;;;;493997;241;27493;-72
2023/12/06 04:55:11;;;;;;;11.25;8.32;;;3.90;99.90;;;;;;494005;241;27527;-73
2023/12/06 04:57:14;;;;;;;9.88;8.05;;;3.90;99.90;;;;;;493999;241;27542;-73
2023/12/06 04:59:13;;;;;;;11.32;7.40;;;3.80;99.90;;;;;;493975;241;27602;-72
2023/12/06 05:01:15;;;;;;;12.55;8.07;;;3.80;99.90;;;;;;493910;241;27467;-72
2023/12/06 05:03:16;;;;;;;10.52;7.40;;;3.80;99.90;;;;;;494082;241;28022;-73
2023/12/06 05:05:17;;;;;;;10.63;7.50;;;3.80;99.90;;;;;;494067;241;27994;-73
2023/12/06 05:07:18;;;;;;;10.23;7.47;;;3.70;99.90;;;;;;494063;241;29087;-73
2023/12/06 05:09:20;;;;;;;9.82;6.70;;;3.70;99.90;;;;;;494037;241;27587;-73
2023/12/06 05:11:21;;;;;;;11.82;8.73;;;3.70;99.90;;;;;;494108;241;27640;-73
2023/12/06 05:13:22;;;;;;;9.10;7.20;;;3.70;99.90;;;;;;493989;241;27520;-72
2023/12/06 05:15:23;;;;;;;10.18;6.97;;;3.60;99.90;;;;;;493968;241;27493;-73
2023/12/06 05:17:25;;;;;;;10.43;7.20;;;3.60;99.90;;;;;;493950;241;27497;-72
2023/12/06 05:19:26;;;;;;;12.93;8.10;;;3.60;99.90;;;;;;493997;241;27530;-73
2023/12/06 05:21:27;;;;;;;9.77;7.60;;;3.60;99.90;;;;;;494006;241;27504;-73
2023/12/06 05:23:28;;;;;;;8.35;6.40;;;3.50;99.90;;;;;;493967;241;27470;-73
2023/12/06 05:25:30;;;;;;;8.90;6.57;;;3.50;99.90;;;;;;493996;241;28080;-73
2023/12/06 05:27:32;;;;;;;7.35;6.05;;;3.40;99.90;;;;;;493954;241;28729;-72
2023/12/06 05:29:32;;;;;;;8.07;6.30;;;3.30;99.90;;;;;;493969;241;27894;-73
2023/12/06 05:31:33;;;;;;;13.25;6.55;;;3.30;99.90;;;;;;493963;241;29082;-73
2023/12/06 05:33:35;;;;;;;9.32;6.32;;;3.30;99.90;;;;;;494042;241;27525;-72
2023/12/06 05:35:37;;;;;;;6.82;6.05;;;3.20;99.90;;;;;;494087;241;27466;-73
2023/12/06 05:37:37;;;;;;;11.35;6.82;;;3.20;99.90;;;;;;493917;241;27524;-73
2023/12/06 05:39:39;;;;;;;8.93;6.40;;;3.20;99.90;;;;;;493932;241;27463;-73
2023/12/06 05:41:40;;;;;;;8.93;5.93;;;3.10;99.90;;;;;;493960;241;27503;-73
2023/12/06 05:43:41;;;;;;;6.50;5.85;;;3.10;99.90;;;;;;494065;241;27469;-72
2023/12/06 05:45:43;;;;;;;7.78;5.85;;;3.10;99.90;;;;;;493971;241;27541;-73
2023/12/06 05:47:44;;;;;;;7.75;6.00;;;3.10;99.90;;;;;;493969;241;27520;-74
2023/12/06 05:49:45;;;;;;;7.62;6.28;;;3.00;99.90;;;;;;493970;241;27470;-74
2023/12/06 05:51:46;;;;;;;6.15;5.55;;;3.00;99.90;;;;;;493989;241;27598;-73
2023/12/06 05:53:47;;;;;;;7.40;6.40;;;3.00;99.90;;;;;;493949;237;27473;-73
2023/12/06 05:55:49;;;;;;;6.45;5.70;;;3.00;99.90;;;;;;493970;241;27486;-73
2023/12/06 05:57:50;;;;;;;10.68;6.00;;;2.90;99.90;;;;;;493984;241;27505;-73
2023/12/06 05:59:51;;;;;;;7.75;6.50;;;2.90;99.90;;;;;;493963;241;27473;-72
2023/12/06 06:01:52;;;;;;;9.93;6.93;;;2.90;99.90;;;;;;493956;241;27493;-73
2023/12/06 06:03:54;;;;;;;9.10;7.25;;;2.90;99.90;;;;;;493989;241;28232;-72
2023/12/06 06:05:55;;;;;;;8.75;7.07;;;2.90;99.90;;;;;;493991;241;27941;-73
2023/12/06 06:07:57;;;;;;;10.57;6.70;;;2.80;99.90;;;;;;493934;241;28040;-73
2023/12/06 06:09:57;;;;;;;9.32;7.00;;;2.90;99.90;;;;;;493914;241;27608;-73
2023/12/06 06:11:59;;;;;;;11.20;6.97;;;2.80;99.90;;;;;;493952;241;27585;-72
2023/12/06 06:14:00;;;;;;;9.43;7.22;;;2.90;99.90;;;;;;493968;241;27576;-76
2023/12/06 06:16:01;;;;;;;9.57;7.25;;;2.90;99.90;;;;;;493951;241;27469;-73
2023/12/06 06:18:05;;;;;;;7.70;6.80;;;2.90;99.90;;;;;;494058;241;27605;-73
2023/12/06 06:20:04;;;;;;;7.53;6.60;;;2.90;99.90;;;;;;493833;241;27453;-72
2023/12/06 06:22:05;;;;;;;9.98;7.80;;;2.80;99.90;;;;;;494003;241;27542;-72
2023/12/06 06:24:06;;;;;;;9.38;6.90;;;2.80;99.90;;;;;;494056;241;27506;-73
2023/12/06 06:26:08;;;;;;;9.15;7.70;;;2.80;99.90;;;;;;494076;241;27461;-72
2023/12/06 06:28:09;;;;;;;19.52;7.97;;;2.90;99.90;;;;;;493991;241;27526;-73
2023/12/06 06:30:13;;;;;;;9.07;7.25;;;2.80;99.90;;;;;;494063;241;28747;-73
2023/12/06 06:32:11;;;;;;;10.45;8.18;;;2.80;99.90;;;;;;493809;241;27889;-73
2023/12/06 06:34:12;;;;;;;10.50;8.00;;;2.80;99.90;;;;;;494063;241;28000;-73
2023/12/06 06:36:14;;;;;;;11.00;8.90;;;2.80;99.90;;;;;;494093;241;27556;-73
2023/12/06 06:38:16;;;;;;;10.68;8.68;;;2.80;99.90;;;;;;493853;241;27626;-73
2023/12/06 06:40:16;;;;;;;10.52;7.85;;;2.80;99.90;;;;;;493786;241;27488;-72
2023/12/06 06:42:17;;;;;;;10.88;8.20;;;2.80;99.90;;;;;;494052;241;27467;-73
2023/12/06 06:44:19;;;;;;;12.25;8.20;;;2.80;99.90;;;;;;494031;241;27600;-73
2023/12/06 06:46:20;;;;;;;13.23;8.82;;;2.70;99.90;;;;;;493998;241;27462;-72
2023/12/06 06:48:21;;;;;;;11.12;8.60;;;2.80;99.90;;;;;;493994;241;27569;-73
2023/12/06 06:50:22;;;;;;;10.68;8.25;;;2.70;99.90;;;;;;494123;237;28093;-73
2023/12/06 06:52:24;;;;;;;11.10;8.23;;;2.80;99.90;;;;;;494078;241;28059;-72
2023/12/06 06:54:25;;;;;;;12.30;8.85;;;2.80;99.90;;;;;;494073;241;29117;-73
2023/12/06 06:56:26;;;;;;;12.18;9.18;;;2.80;99.90;;;;;;494002;241;27457;-72
2023/12/06 06:58:27;;;;;;;11.40;8.90;;;2.80;99.90;;;;;;494080;241;27610;-73
2023/12/06 07:00:29;;;;;;;12.18;8.75;;;2.80;99.90;;;;;;494138;241;27521;-74
2023/12/06 07:02:30;;;;;;;12.37;9.05;;;2.80;99.90;;;;;;494110;241;27551;-73
2023/12/06 07:04:31;;;;;;;13.32;9.68;;;2.80;99.90;;;;;;494116;241;27622;-73
2023/12/06 07:06:32;;;;;;;14.27;9.70;;;2.80;99.90;;;;;;494075;239;27504;-72
2023/12/06 07:08:35;;;;;;;12.55;9.30;;;2.70;99.90;;;;;;494119;241;27503;-72
2023/12/06 07:10:37;;;;;;;12.23;9.63;;;2.70;99.90;;;;;;494040;241;27969;-73
2023/12/06 07:12:36;;;;;;;12.55;9.93;;;2.80;99.90;;;;;;493935;241;28856;-73
2023/12/06 07:14:37;;;;;;;14.30;10.68;;;2.80;99.90;;;;;;494073;241;27990;-72
2023/12/06 07:16:39;;;;;;;13.80;10.20;;;2.80;99.90;;;;;;494097;241;27494;-75
2023/12/06 07:18:40;;;;;;;12.43;9.43;;;2.80;99.90;;;;;;494092;241;27575;-73
2023/12/06 07:20:41;;;;;;;13.88;10.27;;;2.80;99.90;;;;;;494080;241;27505;-73
2023/12/06 07:22:43;;;;;;;12.55;10.13;;;2.80;99.90;;;;;;494040;241;27541;-72
2023/12/06 07:24:44;;;;;;;13.80;10.35;;;2.80;99.90;;;;;;493974;241;27499;-73
2023/12/06 07:26:45;;;;;;;14.50;10.18;;;2.80;99.90;;;;;;494039;241;27609;-75
2023/12/06 07:28:46;;;;;;;12.57;9.80;;;2.80;99.90;;;;;;493992;241;27909;-72
2023/12/06 07:30:47;;;;;;;14.13;10.23;;;2.80;99.90;;;;;;493957;241;29064;-73
2023/12/06 07:32:49;;;;;;;14.55;10.35;;;2.80;99.90;;;;;;494003;239;27492;-73
2023/12/06 07:34:50;;;;;;;15.40;10.93;;;2.80;99.90;;;;;;494087;241;27562;-73
2023/12/06 07:36:53;;;;;;;15.75;10.55;;;2.80;99.90;;;;;;494004;241;27511;-73
2023/12/06 07:38:52;;;;;;;14.73;11.40;;;2.80;99.90;;;;;;493946;241;27634;-73
2023/12/06 07:40:54;;;;;;;13.45;10.43;;;2.80;99.90;;;;;;494045;241;27619;-72
2023/12/06 07:42:55;;;;;;;15.60;11.45;;;2.80;99.90;;;;;;494056;241;27523;-74
2023/12/06 07:44:56;;;;;;;14.57;10.32;;;2.80;99.90;;;;;;494081;241;27939;-72
2023/12/06 07:46:58;;;;;;;13.15;9.93;;;2.80;99.90;;;;;;494051;241;29118;-72
2023/12/06 07:48:59;;;;;;;15.65;11.23;;;2.90;99.90;;;;;;494077;241;27462;-73
2023/12/06 07:51:00;;;;;;;14.68;10.73;;;2.90;99.90;;;;;;493951;241;27517;-73
2023/12/06 07:53:01;;;;;;;15.10;10.65;;;2.90;99.90;;;;;;493970;241;27496;-74
2023/12/06 07:55:06;;;;;;;13.98;10.00;;;2.90;99.90;;;;;;494025;241;27612;-72
2023/12/06 07:57:04;;;;;;;17.12;11.02;;;2.80;99.90;;;;;;493578;241;27523;-73
2023/12/06 07:59:05;;;;;;;15.02;11.20;;;2.90;99.90;;;;;;493875;241;28208;-74
2023/12/06 08:01:06;;;;;;;13.43;10.57;;;2.90;99.90;;;;;;493861;241;28021;-72
2023/12/06 08:03:08;;;;;;;13.70;10.00;;;2.90;99.90;;;;;;493927;241;28100;-73
2023/12/06 08:05:10;;;;;;;15.25;11.48;;;2.90;99.90;;;;;;493926;241;27502;-72
2023/12/06 08:07:10;;;;;;;12.88;10.13;;;2.90;99.90;;;;;;493829;241;27601;-73
2023/12/06 08:09:12;;;;;;;15.90;11.10;;;2.90;99.90;;;;;;494075;241;27886;-73
2023/12/06 08:11:13;;;;;;;11.60;9.40;;;2.80;99.90;;;;;;493933;241;27630;-73
2023/12/06 08:13:14;;;;;;;18.23;10.93;;;2.80;99.90;;;;;;493972;241;27509;-73
2023/12/06 08:15:15;;;;;;;17.15;10.80;;;2.80;99.90;;;;;;493990;241;28007;-73
2023/12/06 08:17:16;;;;;;;15.80;11.82;;;2.90;99.90;;;;;;493987;241;27938;-73
2023/12/06 08:19:18;;;;;;;16.87;10.80;;;2.80;99.90;;;;;;493959;237;28027;-74
2023/12/06 08:21:19;;;;;;;14.85;10.98;;;2.80;99.90;;;;;;494013;241;27473;-73
2023/12/06 08:23:21;;;;;;;13.40;10.55;;;2.90;99.90;;;;;;494066;241;27506;-73
2023/12/06 08:25:21;;;;;;;15.73;11.82;;;2.90;99.90;;;;;;493993;241;27511;-72
2023/12/06 08:27:23;;;;;;;13.68;10.35;;;2.90;99.90;;;;;;494038;241;27541;-73
2023/12/06 08:29:25;;;;;;;14.27;10.73;;;2.90;99.90;;;;;;494002;241;27493;-74
2023/12/06 08:31:25;;;;;;;14.85;10.73;;;2.90;99.90;;;;;;493939;241;27981;-73
2023/12/06 08:33:26;;;;;;;15.10;10.38;;;2.90;99.90;;;;;;493963;241;28055;-73
2023/12/06 08:35:28;;;;;;;12.60;10.43;;;3.00;99.90;;;;;;493984;241;27493;-74
2023/12/06 08:37:29;;;;;;;15.60;10.82;;;3.00;99.90;;;;;;493979;241;27473;-72
2023/12/06 08:39:30;;;;;;;13.57;9.65;;;3.00;99.90;;;;;;494000;241;27604;-74
2023/12/06 08:41:32;;;;;;;13.95;10.05;;;3.00;99.90;;;;;;494051;241;27483;-72
2023/12/06 08:43:33;;;;;;;12.45;10.00;;;3.00;99.90;;;;;;494056;241;27648;-73
2023/12/06 08:45:34;;;;;;;15.35;10.35;;;3.00;99.90;;;;;;494084;241;27507;-73
2023/12/06 08:47:35;;;;;;;13.75;10.38;;;3.00;99.90;;;;;;494056;241;27921;-73
2023/12/06 08:49:37;;;;;;;14.27;10.90;;;3.10;99.90;;;;;;494033;241;29245;-73
2023/12/06 08:51:38;;;;;;;13.27;10.20;;;3.10;99.90;;;;;;494080;241;27611;-73
2023/12/06 08:53:39;;;;;;;17.05;10.82;;;3.20;99.90;;;;;;494074;241;27462;-73
2023/12/06 08:55:41;;;;;;;11.95;9.57;;;3.20;99.90;;;;;;494123;241;27491;-73
2023/12/06 08:57:41;;;;;;;13.23;10.13;;;3.10;99.90;;;;;;493927;241;27478;-73
2023/12/06 08:59:43;;;;;;;13.45;9.68;;;3.10;99.90;;;;;;493993;241;27615;-73
2023/12/06 09:01:44;;;;;;;14.55;10.63;;;3.10;99.90;;;;;;493991;241;27569;-74
2023/12/06 09:03:45;;;;;;;13.73;10.13;;;3.10;99.90;;;;;;493922;241;27910;-73
2023/12/06 09:05:48;;;;;;;15.07;10.00;;;3.10;99.90;;;;;;493981;241;27994;-73
2023/12/06 09:07:48;;;;;;;12.00;8.38;;;3.10;99.90;;;;;;493998;241;27541;-72
2023/12/06 09:09:49;;;;;;;17.85;13.82;;;3.10;99.90;;;;;;494071;241;27497;-73
2023/12/06 09:11:50;;;;;;;10.85;8.93;;;3.10;99.90;;;;;;494090;241;27597;-73
2023/12/06 09:13:52;;;;;;;13.52;10.73;;;3.10;99.90;;;;;;494094;241;27486;-73
2023/12/06 09:15:53;;;;;;;13.27;10.35;;;3.10;99.90;;;;;;494072;241;27528;-73
2023/12/06 09:17:54;;;;;;;13.00;9.95;;;3.20;99.90;;;;;;493961;241;27552;-74
2023/12/06 09:19:55;;;;;;;12.25;9.15;;;3.10;99.90;;;;;;493995;241;27872;-73
2023/12/06 09:21:57;;;;;;;15.13;11.25;;;3.10;99.90;;;;;;493990;241;28106;-74
2023/12/06 09:23:58;;;;;;;16.92;10.35;;;3.10;99.90;;;;;;493976;241;29003;-72
2023/12/06 09:25:59;;;;;;;16.20;10.98;;;3.10;99.90;;;;;;493980;241;27504;-73
2023/12/06 09:28:03;;;;;;;18.52;10.43;;;3.20;99.90;;;;;;493984;241;27533;-73
2023/12/06 09:30:03;;;;;;;14.38;10.10;;;3.20;99.90;;;;;;493939;241;27524;-72
2023/12/06 09:32:04;;;;;;;14.70;10.60;;;3.20;99.90;;;;;;493977;241;27529;-72
2023/12/06 09:34:04;;;;;;;13.13;10.77;;;3.20;99.90;;;;;;493901;241;27490;-72
2023/12/06 09:36:06;;;;;;;14.57;11.18;;;3.20;99.90;;;;;;493988;241;27960;-73
2023/12/06 09:38:07;;;;;;;20.58;12.10;;;3.20;99.90;;;;;;494084;241;28112;-75
2023/12/06 09:40:08;;;;;;;11.80;9.43;;;3.30;99.90;;;;;;493912;241;27500;-73
2023/12/06 09:42:09;;;;;;;13.07;10.52;;;3.30;99.90;;;;;;494066;241;27593;-73
2023/12/06 09:44:10;;;;;;;16.55;12.35;;;3.30;99.90;;;;;;494014;241;27631;-74
2023/12/06 09:46:12;;;;;;;16.40;12.13;;;3.30;99.90;;;;;;494022;241;27473;-73
2023/12/06 09:48:13;;;;;;;15.55;10.25;;;3.30;99.90;;;;;;493936;241;27536;-73
2023/12/06 09:50:14;;;;;;;13.85;10.23;;;3.40;99.90;;;;;;493929;241;27470;-73
2023/12/06 09:52:17;;;;;;;14.87;10.07;;;3.40;99.90;;;;;;494040;241;28016;-73
2023/12/06 09:54:17;;;;;;;13.43;10.90;;;3.40;99.90;;;;;;493905;237;28089;-74
2023/12/06 09:56:18;;;;;;;14.40;10.45;;;3.40;99.90;;;;;;494082;241;27553;-73
2023/12/06 09:58:19;;;;;;;12.35;9.88;;;3.40;99.90;;;;;;494104;241;27483;-74
2023/12/06 10:00:20;;;;;;;12.20;9.77;;;3.50;99.90;;;;;;493987;241;27480;-73
2023/12/06 10:02:22;;;;;;;12.23;9.15;;;3.50;99.90;;;;;;494011;241;27506;-72
2023/12/06 10:04:23;;;;;;;11.70;8.65;;;3.40;99.90;;;;;;494130;241;27556;-73
2023/12/06 10:06:24;;;;;;;15.85;10.40;;;3.50;99.90;;;;;;494121;241;27540;-73
2023/12/06 10:08:25;;;;;;;12.25;9.45;;;3.60;99.90;;;;;;493971;241;27524;-73
2023/12/06 10:10:27;;;;;;;14.52;11.23;;;3.70;99.90;;;;;;494082;241;28758;-73
2023/12/06 10:12:28;;;;;;;14.25;11.57;;;3.70;99.90;;;;;;494135;241;29025;-73
2023/12/06 10:14:29;;;;;;;12.30;9.20;;;3.80;99.90;;;;;;494115;241;27513;-73
2023/12/06 10:16:30;;;;;;;14.70;11.98;;;3.80;99.90;;;;;;494071;241;27509;-74
2023/12/06 10:18:32;;;;;;;11.38;9.93;;;3.80;99.90;;;;;;493985;241;27497;-73
2023/12/06 10:20:33;;;;;;;15.20;12.02;;;3.90;99.90;;;;;;494032;241;27883;-73
2023/12/06 10:22:34;;;;;;;14.68;10.07;;;3.90;99.90;;;;;;494039;241;27454;-73
2023/12/06 10:24:36;;;;;;;11.12;9.55;;;3.90;99.90;;;;;;494000;241;27510;-73
2023/12/06 10:26:37;;;;;;;12.48;9.20;;;3.80;99.90;;;;;;493989;241;27992;-72
2023/12/06 10:28:38;;;;;;;11.55;8.93;;;3.80;99.90;;;;;;493987;241;27980;-73
2023/12/06 10:30:39;;;;;;;11.38;8.73;;;3.80;99.90;;;;;;494037;241;27497;-75
2023/12/06 10:32:41;;;;;;;11.32;9.32;;;3.80;99.90;;;;;;493956;239;27522;-73